createdAt,value
2022-08-03T00:00:35.976Z,0.00
2022-08-03T00:01:35.984Z,0.00
2022-08-03T00:02:35.975Z,0.00
2022-08-03T00:03:35.937Z,0.00
2022-08-03T00:04:35.941Z,0.00
2022-08-03T00:05:35.902Z,0.00
2022-08-03T00:06:37.327Z,0.00
2022-08-03T00:07:35.868Z,0.00
2022-08-03T00:08:37.653Z,0.00
2022-08-03T00:09:36.036Z,0.00
2022-08-03T00:10:35.831Z,0.00
2022-08-03T00:11:35.841Z,0.00
2022-08-03T00:12:35.800Z,0.00
2022-08-03T00:13:35.781Z,0.00
2022-08-03T00:14:35.787Z,0.00
2022-08-03T00:15:35.799Z,0.00
2022-08-03T00:16:35.806Z,0.00
2022-08-03T00:17:52.740Z,0.00
2022-08-03T00:18:36.715Z,0.00
2022-08-03T00:19:35.703Z,0.00
2022-08-03T00:20:35.716Z,0.00
2022-08-03T00:21:35.680Z,0.00
2022-08-03T00:22:35.652Z,0.00
2022-08-03T00:23:51.616Z,0.00
2022-08-03T00:24:36.639Z,0.00
2022-08-03T00:25:35.617Z,0.00
2022-08-03T00:26:35.615Z,0.00
2022-08-03T00:27:35.596Z,0.00
2022-08-03T00:28:35.575Z,0.00
2022-08-03T00:29:59.412Z,0.00
2022-08-03T00:30:36.550Z,0.00
2022-08-03T00:31:52.810Z,0.00
2022-08-03T00:32:36.538Z,0.00
2022-08-03T00:33:59.187Z,0.00
2022-08-03T00:34:57.769Z,0.00
2022-08-03T00:35:50.401Z,0.00
2022-08-03T00:36:36.464Z,0.00
2022-08-03T00:37:41.332Z,0.00
2022-08-03T00:38:36.421Z,0.00
2022-08-03T00:39:35.422Z,0.00
2022-08-03T00:40:35.401Z,0.00
2022-08-03T00:41:35.390Z,0.00
2022-08-03T00:42:56.389Z,0.00
2022-08-03T00:43:35.369Z,0.00
2022-08-03T00:44:35.350Z,0.00
2022-08-03T00:45:35.381Z,0.00
2022-08-03T00:46:35.301Z,0.00
2022-08-03T00:47:35.303Z,0.00
2022-08-03T00:48:35.329Z,0.00
2022-08-03T00:49:35.331Z,0.00
2022-08-03T00:50:35.262Z,0.00
2022-08-03T00:51:35.308Z,0.00
2022-08-03T00:52:35.243Z,0.00
2022-08-03T00:53:35.242Z,0.00
2022-08-03T00:54:35.221Z,0.00
2022-08-03T00:55:35.770Z,0.00
2022-08-03T00:56:35.212Z,0.00
2022-08-03T00:57:35.165Z,0.00
2022-08-03T00:58:35.190Z,0.00
2022-08-03T00:59:35.176Z,0.00
2022-08-03T01:00:35.124Z,0.00
2022-08-03T01:01:35.170Z,0.00
2022-08-03T01:02:35.098Z,0.00
2022-08-03T01:03:35.099Z,0.00
2022-08-03T01:04:35.099Z,0.00
2022-08-03T01:05:35.047Z,0.00
2022-08-03T01:06:35.027Z,0.00
2022-08-03T01:07:35.018Z,0.00
2022-08-03T01:08:35.017Z,0.00
2022-08-03T01:09:34.988Z,0.00
2022-08-03T01:10:34.988Z,0.00
2022-08-03T01:11:35.036Z,0.00
2022-08-03T01:12:34.948Z,0.00
2022-08-03T01:14:01.620Z,0.00
2022-08-03T01:14:35.920Z,0.00
2022-08-03T01:15:34.900Z,0.00
2022-08-03T01:16:35.861Z,0.00
2022-08-03T01:17:34.938Z,0.00
2022-08-03T01:18:34.861Z,0.00
2022-08-03T01:19:34.871Z,0.00
2022-08-03T01:20:34.853Z,0.00
2022-08-03T01:21:34.826Z,0.00
2022-08-03T01:22:34.820Z,0.00
2022-08-03T01:23:34.855Z,0.00
2022-08-03T01:24:34.784Z,0.00
2022-08-03T01:25:34.793Z,0.00
2022-08-03T01:26:34.744Z,0.00
2022-08-03T01:27:34.805Z,0.00
2022-08-03T01:28:34.764Z,0.00
2022-08-03T01:29:34.714Z,0.00
2022-08-03T01:30:34.697Z,0.00
2022-08-03T01:31:35.291Z,0.00
2022-08-03T01:32:58.360Z,0.00
2022-08-03T01:33:35.696Z,0.00
2022-08-03T01:34:34.669Z,0.00
2022-08-03T01:35:38.268Z,0.00
2022-08-03T01:36:34.607Z,0.00
2022-08-03T01:37:34.629Z,0.00
2022-08-03T01:38:34.587Z,0.00
2022-08-03T01:39:34.597Z,0.00
2022-08-03T01:40:34.554Z,0.00
2022-08-03T01:41:34.577Z,0.00
2022-08-03T01:42:34.538Z,0.00
2022-08-03T01:44:28.231Z,0.00
2022-08-03T01:44:35.519Z,0.00
2022-08-03T01:45:34.561Z,0.00
2022-08-03T01:46:34.478Z,0.00
2022-08-03T01:47:34.860Z,0.00
2022-08-03T01:48:34.447Z,0.00
2022-08-03T01:49:34.496Z,0.00
2022-08-03T01:50:34.447Z,0.00
2022-08-03T01:52:02.714Z,0.00
2022-08-03T01:52:35.401Z,0.00
2022-08-03T01:53:34.381Z,0.00
2022-08-03T01:54:34.371Z,0.00
2022-08-03T01:55:34.353Z,0.00
2022-08-03T01:56:34.329Z,0.00
2022-08-03T01:57:34.333Z,0.00
2022-08-03T01:58:35.322Z,0.00
2022-08-03T01:59:34.345Z,0.00
2022-08-03T02:00:34.253Z,0.00
2022-08-03T02:02:29.016Z,0.00
2022-08-03T02:02:35.525Z,0.00
2022-08-03T02:03:34.346Z,0.00
2022-08-03T02:04:34.284Z,0.00
2022-08-03T02:05:34.212Z,0.00
2022-08-03T02:07:01.415Z,0.00
2022-08-03T02:07:35.183Z,0.00
2022-08-03T02:08:34.186Z,0.00
2022-08-03T02:09:34.184Z,0.00
2022-08-03T02:10:35.267Z,0.00
2022-08-03T02:11:34.124Z,0.00
2022-08-03T02:12:34.118Z,0.00
2022-08-03T02:13:34.146Z,0.00
2022-08-03T02:14:34.067Z,0.00
2022-08-03T02:15:34.117Z,0.00
2022-08-03T02:16:34.067Z,0.00
2022-08-03T02:17:39.938Z,0.00
2022-08-03T02:18:35.010Z,0.00
2022-08-03T02:19:35.816Z,0.00
2022-08-03T02:20:33.987Z,0.00
2022-08-03T02:21:56.530Z,0.00
2022-08-03T02:22:34.963Z,0.00
2022-08-03T02:23:33.949Z,0.00
2022-08-03T02:24:33.949Z,0.00
2022-08-03T02:25:33.944Z,0.00
2022-08-03T02:26:33.890Z,0.00
2022-08-03T02:27:33.891Z,0.00
2022-08-03T02:28:33.909Z,0.00
2022-08-03T02:29:39.177Z,0.00
2022-08-03T02:30:34.851Z,0.00
2022-08-03T02:31:33.830Z,0.00
2022-08-03T02:32:33.812Z,0.00
2022-08-03T02:33:33.801Z,0.00
2022-08-03T02:34:33.801Z,0.00
2022-08-03T02:35:33.752Z,0.00
2022-08-03T02:36:33.771Z,0.00
2022-08-03T02:37:33.755Z,0.00
2022-08-03T02:38:33.724Z,0.00
2022-08-03T02:39:33.704Z,0.00
2022-08-03T02:40:33.701Z,0.00
2022-08-03T02:41:33.701Z,0.00
2022-08-03T02:42:33.718Z,0.00
2022-08-03T02:43:57.659Z,0.00
2022-08-03T02:44:34.634Z,0.00
2022-08-03T02:45:33.646Z,0.00
2022-08-03T02:46:33.596Z,0.00
2022-08-03T02:47:53.827Z,0.00
2022-08-03T02:48:34.585Z,0.00
2022-08-03T02:49:40.898Z,0.00
2022-08-03T02:50:34.548Z,0.00
2022-08-03T02:51:33.549Z,0.00
2022-08-03T02:52:33.535Z,0.00
2022-08-03T02:53:33.537Z,0.00
2022-08-03T02:54:33.486Z,4.00
2022-08-03T02:55:33.480Z,4.00
2022-08-03T02:56:33.479Z,0.00
2022-08-03T02:57:33.476Z,0.00
2022-08-03T02:58:33.488Z,4.00
2022-08-03T02:59:33.467Z,4.00
2022-08-03T03:00:33.484Z,4.00
2022-08-03T03:01:33.432Z,4.00
2022-08-03T03:02:33.515Z,4.00
2022-08-03T03:03:40.025Z,8.00
2022-08-03T03:04:34.478Z,8.00
2022-08-03T03:05:54.626Z,8.00
2022-08-03T03:06:34.337Z,8.00
2022-08-03T03:07:33.931Z,8.00
2022-08-03T03:08:34.325Z,12.00
2022-08-03T03:09:40.379Z,16.00
2022-08-03T03:10:34.321Z,16.00
2022-08-03T03:11:33.293Z,20.00
2022-08-03T03:12:33.342Z,24.00
2022-08-03T03:13:33.251Z,28.00
2022-08-03T03:14:34.132Z,28.00
2022-08-03T03:15:33.183Z,36.00
2022-08-03T03:16:33.213Z,40.00
2022-08-03T03:17:33.181Z,44.00
2022-08-03T03:18:33.164Z,48.00
2022-08-03T03:19:33.148Z,60.00
2022-08-03T03:20:33.123Z,64.00
2022-08-03T03:21:33.148Z,76.00
2022-08-03T03:22:33.103Z,80.00
2022-08-03T03:23:33.090Z,92.00
2022-08-03T03:24:33.079Z,104.00
2022-08-03T03:25:33.057Z,112.00
2022-08-03T03:26:33.048Z,128.00
2022-08-03T03:27:33.056Z,140.00
2022-08-03T03:28:33.018Z,160.00
2022-08-03T03:29:39.469Z,172.00
2022-08-03T03:30:34.004Z,192.00
2022-08-03T03:31:32.949Z,212.00
2022-08-03T03:32:32.947Z,228.00
2022-08-03T03:33:32.947Z,252.00
2022-08-03T03:34:32.958Z,276.00
2022-08-03T03:35:37.165Z,296.00
2022-08-03T03:36:33.901Z,320.00
2022-08-03T03:37:32.879Z,348.00
2022-08-03T03:38:32.872Z,376.00
2022-08-03T03:39:32.891Z,404.00
2022-08-03T03:40:32.849Z,436.00
2022-08-03T03:41:33.930Z,464.00
2022-08-03T03:42:32.822Z,496.00
2022-08-03T03:43:32.801Z,528.00
2022-08-03T03:44:32.821Z,564.00
2022-08-03T03:45:32.752Z,604.00
2022-08-03T03:46:32.784Z,644.00
2022-08-03T03:47:33.120Z,684.00
2022-08-03T03:48:32.733Z,724.00
2022-08-03T03:49:32.769Z,768.00
2022-08-03T03:50:32.712Z,816.00
2022-08-03T03:51:32.672Z,864.00
2022-08-03T03:52:32.680Z,920.00
2022-08-03T03:53:32.691Z,980.00
2022-08-03T03:54:32.652Z,1036.00
2022-08-03T03:55:32.663Z,1100.00
2022-08-03T03:56:32.607Z,1168.00
2022-08-03T03:57:32.597Z,1248.00
2022-08-03T03:58:32.615Z,1320.00
2022-08-03T03:59:32.574Z,1376.00
2022-08-03T04:00:32.606Z,1424.00
2022-08-03T04:01:32.535Z,1472.00
2022-08-03T04:02:32.537Z,1528.00
2022-08-03T04:03:32.505Z,1596.00
2022-08-03T04:04:32.495Z,1672.00
2022-08-03T04:05:32.488Z,1736.00
2022-08-03T04:06:32.483Z,1796.00
2022-08-03T04:07:32.465Z,1856.00
2022-08-03T04:08:32.438Z,1920.00
2022-08-03T04:09:32.422Z,2000.00
2022-08-03T04:10:32.428Z,2096.00
2022-08-03T04:11:32.385Z,2188.00
2022-08-03T04:12:32.409Z,2300.00
2022-08-03T04:13:32.398Z,2408.00
2022-08-03T04:14:32.360Z,2536.00
2022-08-03T04:15:32.330Z,2664.00
2022-08-03T04:16:32.338Z,2776.00
2022-08-03T04:17:32.319Z,2880.00
2022-08-03T04:18:32.340Z,2928.00
2022-08-03T04:19:32.281Z,2980.00
2022-08-03T04:20:32.263Z,2996.00
2022-08-03T04:21:32.250Z,2956.00
2022-08-03T04:22:32.272Z,2880.00
2022-08-03T04:23:32.212Z,2800.00
2022-08-03T04:24:32.211Z,2716.00
2022-08-03T04:25:32.192Z,2664.00
2022-08-03T04:26:32.183Z,2632.00
2022-08-03T04:27:32.182Z,2628.00
2022-08-03T04:28:32.212Z,2612.00
2022-08-03T04:29:32.134Z,2616.00
2022-08-03T04:30:32.133Z,2632.00
2022-08-03T04:31:32.115Z,2664.00
2022-08-03T04:32:32.124Z,2700.00
2022-08-03T04:33:32.359Z,2768.00
2022-08-03T04:34:32.096Z,2880.00
2022-08-03T04:36:02.184Z,2996.00
2022-08-03T04:36:33.045Z,3136.00
2022-08-03T04:37:32.034Z,3232.00
2022-08-03T04:38:32.018Z,3280.00
2022-08-03T04:39:31.997Z,3308.00
2022-08-03T04:40:31.987Z,3324.00
2022-08-03T04:41:31.987Z,3348.00
2022-08-03T04:42:31.988Z,3368.00
2022-08-03T04:43:31.959Z,3340.00
2022-08-03T04:44:31.938Z,3280.00
2022-08-03T04:45:31.899Z,3240.00
2022-08-03T04:46:31.928Z,3196.00
2022-08-03T04:47:31.888Z,3156.00
2022-08-03T04:48:31.879Z,3108.00
2022-08-03T04:49:31.957Z,3028.00
2022-08-03T04:50:31.856Z,2896.00
2022-08-03T04:51:31.841Z,2796.00
2022-08-03T04:52:31.812Z,2744.00
2022-08-03T04:53:31.820Z,2728.00
2022-08-03T04:54:31.780Z,2724.00
2022-08-03T04:55:31.827Z,2728.00
2022-08-03T04:56:31.752Z,2744.00
2022-08-03T04:57:31.731Z,2776.00
2022-08-03T04:58:31.723Z,2824.00
2022-08-03T04:59:31.726Z,2892.00
2022-08-03T05:00:31.698Z,2988.00
2022-08-03T05:01:31.819Z,3112.00
2022-08-03T05:02:31.677Z,3260.00
2022-08-03T05:03:31.663Z,3384.00
2022-08-03T05:04:31.683Z,3472.00
2022-08-03T05:05:50.225Z,3536.00
2022-08-03T05:06:32.673Z,3648.00
2022-08-03T05:07:36.404Z,3756.00
2022-08-03T05:08:32.596Z,3872.00
2022-08-03T05:09:49.789Z,3844.00
2022-08-03T05:10:32.592Z,3908.00
2022-08-03T05:11:31.569Z,3952.00
2022-08-03T05:12:33.158Z,3944.00
2022-08-03T05:13:31.549Z,3896.00
2022-08-03T05:14:31.546Z,3884.00
2022-08-03T05:15:31.500Z,3880.00
2022-08-03T05:16:31.501Z,4048.00
2022-08-03T05:17:31.457Z,4196.00
2022-08-03T05:18:31.448Z,4424.00
2022-08-03T05:19:31.488Z,4628.00
2022-08-03T05:20:31.430Z,4956.00
2022-08-03T05:21:52.113Z,5084.00
2022-08-03T05:22:32.431Z,4868.00
2022-08-03T05:23:31.361Z,4672.00
2022-08-03T05:24:31.361Z,4656.00
2022-08-03T05:25:31.360Z,4652.00
2022-08-03T05:26:31.391Z,4664.00
2022-08-03T05:27:31.313Z,4656.00
2022-08-03T05:28:31.329Z,4648.00
2022-08-03T05:29:31.292Z,4664.00
2022-08-03T05:30:34.049Z,4684.00
2022-08-03T05:31:31.251Z,4704.00
2022-08-03T05:32:31.252Z,4736.00
2022-08-03T05:33:31.242Z,4760.00
2022-08-03T05:34:31.255Z,4792.00
2022-08-03T05:35:57.579Z,4824.00
2022-08-03T05:36:32.195Z,4860.00
2022-08-03T05:37:31.198Z,4876.00
2022-08-03T05:38:34.000Z,4904.00
2022-08-03T05:39:31.161Z,4932.00
2022-08-03T05:40:31.156Z,4992.00
2022-08-03T05:41:36.866Z,5052.00
2022-08-03T05:42:32.107Z,5084.00
2022-08-03T05:43:31.100Z,5136.00
2022-08-03T05:44:31.071Z,5196.00
2022-08-03T05:45:31.073Z,5360.00
2022-08-03T05:46:31.062Z,5440.00
2022-08-03T05:47:31.029Z,5388.00
2022-08-03T05:48:31.020Z,5268.00
2022-08-03T05:49:31.034Z,5184.00
2022-08-03T05:50:31.000Z,5308.00
2022-08-03T05:51:30.998Z,5752.00
2022-08-03T05:52:30.975Z,6404.00
2022-08-03T05:53:30.954Z,6960.00
2022-08-03T05:54:56.077Z,7724.00
2022-08-03T05:55:31.940Z,8660.00
2022-08-03T05:56:30.932Z,9332.00
2022-08-03T05:57:30.886Z,8592.00
2022-08-03T05:58:30.890Z,8296.00
2022-08-03T05:59:38.773Z,8504.00
2022-08-03T06:00:31.876Z,8408.00
2022-08-03T06:01:30.917Z,8532.00
2022-08-03T06:02:30.832Z,8648.00
2022-08-03T06:03:30.805Z,8620.00
2022-08-03T06:04:30.803Z,8440.00
2022-08-03T06:05:30.833Z,8220.00
2022-08-03T06:06:32.379Z,8192.00
2022-08-03T06:07:30.776Z,8240.00
2022-08-03T06:08:30.739Z,8312.00
2022-08-03T06:09:56.592Z,8496.00
2022-08-03T06:10:37.133Z,8288.00
2022-08-03T06:11:31.713Z,7864.00
2022-08-03T06:12:30.711Z,7692.00
2022-08-03T06:13:30.677Z,7672.00
2022-08-03T06:14:30.659Z,7696.00
2022-08-03T06:15:30.666Z,7724.00
2022-08-03T06:16:30.667Z,7744.00
2022-08-03T06:17:37.661Z,7792.00
2022-08-03T06:18:31.596Z,7820.00
2022-08-03T06:19:30.579Z,7840.00
2022-08-03T06:20:30.631Z,7856.00
2022-08-03T06:21:30.567Z,7844.00
2022-08-03T06:22:30.551Z,7812.00
2022-08-03T06:23:54.368Z,7780.00
2022-08-03T06:24:31.534Z,7760.00
2022-08-03T06:25:30.567Z,7692.00
2022-08-03T06:26:30.492Z,7580.00
2022-08-03T06:27:37.144Z,7076.00
2022-08-03T06:28:52.441Z,6960.00
2022-08-03T06:29:31.461Z,7052.00
2022-08-03T06:30:30.424Z,7000.00
2022-08-03T06:31:33.359Z,7776.00
2022-08-03T06:32:30.432Z,7808.00
2022-08-03T06:33:48.221Z,7852.00
2022-08-03T06:34:35.667Z,7888.00
2022-08-03T06:35:30.366Z,7912.00
2022-08-03T06:36:30.345Z,7920.00
2022-08-03T06:37:30.336Z,7948.00
2022-08-03T06:38:30.357Z,7968.00
2022-08-03T06:39:30.351Z,8016.00
2022-08-03T06:40:30.289Z,8048.00
2022-08-03T06:41:30.296Z,8092.00
2022-08-03T06:42:31.319Z,8156.00
2022-08-03T06:43:30.247Z,8220.00
2022-08-03T06:44:31.250Z,8288.00
2022-08-03T06:45:31.815Z,8344.00
2022-08-03T06:46:30.212Z,8388.00
2022-08-03T06:47:30.218Z,8436.00
2022-08-03T06:48:30.222Z,8464.00
2022-08-03T06:49:30.204Z,8496.00
2022-08-03T06:50:30.162Z,8556.00
2022-08-03T06:52:04.187Z,8644.00
2022-08-03T06:52:37.611Z,8756.00
2022-08-03T06:53:31.133Z,8876.00
2022-08-03T06:54:32.917Z,9044.00
2022-08-03T06:55:30.244Z,9228.00
2022-08-03T06:56:30.074Z,9492.00
2022-08-03T06:57:30.061Z,10236.00
2022-08-03T06:58:30.056Z,15216.00
2022-08-03T07:00:07.446Z,21856.00
2022-08-03T07:00:31.073Z,25312.00
2022-08-03T07:01:30.081Z,26976.00
2022-08-03T07:02:29.991Z,26976.00
2022-08-03T07:03:29.998Z,27648.00
2022-08-03T07:04:30.039Z,27584.00
2022-08-03T07:05:29.999Z,26496.00
2022-08-03T07:06:29.940Z,25632.00
2022-08-03T07:07:29.934Z,27840.00
2022-08-03T07:08:33.853Z,29120.00
2022-08-03T07:09:29.908Z,29568.00
2022-08-03T07:10:29.894Z,31360.00
2022-08-03T07:11:29.895Z,29056.00
2022-08-03T07:12:29.868Z,27840.00
2022-08-03T07:13:29.823Z,29152.00
2022-08-03T07:14:29.934Z,28608.00
2022-08-03T07:15:53.847Z,27296.00
2022-08-03T07:16:30.845Z,29184.00
2022-08-03T07:17:29.815Z,29280.00
2022-08-03T07:18:30.226Z,28416.00
2022-08-03T07:19:29.764Z,29216.00
2022-08-03T07:20:32.525Z,32512.00
2022-08-03T07:21:29.736Z,32928.00
2022-08-03T07:22:29.753Z,31872.00
2022-08-03T07:23:29.719Z,32224.00
2022-08-03T07:24:29.756Z,33696.00
2022-08-03T07:25:29.690Z,33056.00
2022-08-03T07:26:29.665Z,34080.00
2022-08-03T07:27:29.682Z,35200.00
2022-08-03T07:28:29.701Z,36352.00
2022-08-03T07:29:29.656Z,37472.00
2022-08-03T07:30:30.636Z,37184.00
2022-08-03T07:31:34.447Z,37952.00
2022-08-03T07:32:30.593Z,38688.00
2022-08-03T07:33:29.580Z,38336.00
2022-08-03T07:34:29.653Z,37888.00
2022-08-03T07:35:29.600Z,37792.00
2022-08-03T07:36:29.538Z,39840.00
2022-08-03T07:37:29.534Z,40576.00
2022-08-03T07:38:29.522Z,40416.00
2022-08-03T07:39:29.495Z,42368.00
2022-08-03T07:40:31.768Z,32960.00
2022-08-03T07:41:29.474Z,36512.00
2022-08-03T07:42:29.529Z,33152.00
2022-08-03T07:43:29.454Z,33536.00
2022-08-03T07:44:29.436Z,37312.00
2022-08-03T07:45:29.468Z,42368.00
2022-08-03T07:46:29.427Z,41952.00
2022-08-03T07:47:35.379Z,42944.00
2022-08-03T07:48:30.625Z,42400.00
2022-08-03T07:49:29.415Z,36864.00
2022-08-03T07:50:29.380Z,35296.00
2022-08-03T07:51:29.367Z,35808.00
2022-08-03T07:52:29.342Z,33920.00
2022-08-03T07:53:29.391Z,38528.00
2022-08-03T07:54:29.392Z,37088.00
2022-08-03T07:55:29.297Z,35840.00
2022-08-03T07:56:29.325Z,35168.00
2022-08-03T07:57:29.282Z,34912.00
2022-08-03T07:58:29.275Z,46240.00
2022-08-03T07:59:29.278Z,48320.00
2022-08-03T08:00:30.331Z,45408.00
2022-08-03T08:01:29.396Z,45376.00
2022-08-03T08:02:29.195Z,45664.00
2022-08-03T08:03:29.257Z,47648.00
2022-08-03T08:04:30.185Z,46048.00
2022-08-03T08:05:29.215Z,44896.00
2022-08-03T08:06:29.153Z,42048.00
2022-08-03T08:07:29.171Z,43904.00
2022-08-03T08:08:29.116Z,45184.00
2022-08-03T08:09:29.157Z,46848.00
2022-08-03T08:10:29.106Z,46816.00
2022-08-03T08:11:29.100Z,41376.00
2022-08-03T08:12:29.068Z,35904.00
2022-08-03T08:13:29.049Z,38112.00
2022-08-03T08:14:29.040Z,34784.00
2022-08-03T08:15:29.197Z,32096.00
2022-08-03T08:16:29.022Z,36800.00
2022-08-03T08:17:29.129Z,35168.00
2022-08-03T08:18:29.053Z,31744.00
2022-08-03T08:19:29.174Z,28704.00
2022-08-03T08:20:31.364Z,29152.00
2022-08-03T08:21:53.883Z,36064.00
2022-08-03T08:22:31.387Z,36352.00
2022-08-03T08:23:42.363Z,32960.00
2022-08-03T08:24:29.924Z,30624.00
2022-08-03T08:25:28.886Z,31360.00
2022-08-03T08:26:28.963Z,34272.00
2022-08-03T08:27:28.875Z,34624.00
2022-08-03T08:28:33.559Z,38272.00
2022-08-03T08:29:28.856Z,34592.00
2022-08-03T08:30:28.852Z,38304.00
2022-08-03T08:31:28.818Z,45568.00
2022-08-03T08:32:28.849Z,46048.00
2022-08-03T08:33:42.181Z,46528.00
2022-08-03T08:34:29.798Z,48576.00
2022-08-03T08:35:39.569Z,49632.00
2022-08-03T08:36:28.773Z,48128.00
2022-08-03T08:37:28.809Z,49152.00
2022-08-03T08:38:28.780Z,48224.00
2022-08-03T08:39:28.747Z,47232.00
2022-08-03T08:40:28.700Z,47488.00
2022-08-03T08:41:32.081Z,49312.00
2022-08-03T08:42:28.722Z,48128.00
2022-08-03T08:43:40.730Z,47200.00
2022-08-03T08:44:28.673Z,43296.00
2022-08-03T08:45:28.633Z,45376.00
2022-08-03T08:46:28.636Z,42176.00
2022-08-03T08:47:28.617Z,44800.00
2022-08-03T08:48:28.604Z,43680.00
2022-08-03T08:49:28.698Z,43456.00
2022-08-03T08:50:28.750Z,42432.00
2022-08-03T08:51:43.821Z,44416.00
2022-08-03T08:52:32.173Z,46176.00
2022-08-03T08:53:28.557Z,48640.00
2022-08-03T08:54:28.527Z,50176.00
2022-08-03T08:55:28.531Z,51424.00
2022-08-03T08:56:28.508Z,51296.00
2022-08-03T08:57:42.222Z,52000.00
2022-08-03T08:58:29.487Z,55136.00
2022-08-03T08:59:47.653Z,58016.00
2022-08-03T09:00:29.451Z,58304.00
2022-08-03T09:01:28.589Z,58048.00
2022-08-03T09:02:28.462Z,59488.00
2022-08-03T09:03:30.376Z,59328.00
2022-08-03T09:04:28.395Z,57952.00
2022-08-03T09:05:54.986Z,58016.00
2022-08-03T09:06:29.411Z,59616.00
2022-08-03T09:07:28.354Z,60608.00
2022-08-03T09:08:28.382Z,63840.00
2022-08-03T09:10:08.280Z,63616.00
2022-08-03T09:10:29.333Z,62432.00
2022-08-03T09:11:54.328Z,64640.00
2022-08-03T09:12:41.397Z,64480.00
2022-08-03T09:13:29.416Z,62752.00
2022-08-03T09:14:37.246Z,60800.00
2022-08-03T09:15:29.332Z,62336.00
2022-08-03T09:16:28.226Z,64320.00
2022-08-03T09:17:28.240Z,63648.00
2022-08-03T09:18:29.005Z,65184.00
2022-08-03T09:19:28.215Z,66368.00
2022-08-03T09:20:28.196Z,69088.00
2022-08-03T09:21:32.962Z,68832.00
2022-08-03T09:22:29.168Z,68832.00
2022-08-03T09:23:59.187Z,69472.00
2022-08-03T09:24:41.290Z,73056.00
2022-08-03T09:25:29.157Z,73856.00
2022-08-03T09:26:28.120Z,74752.00
2022-08-03T09:27:28.121Z,73440.00
2022-08-03T09:29:00.060Z,67456.00
2022-08-03T09:29:29.110Z,64416.00
2022-08-03T09:30:33.300Z,67776.00
2022-08-03T09:31:29.093Z,66432.00
2022-08-03T09:32:28.085Z,66944.00
2022-08-03T09:33:36.145Z,65024.00
2022-08-03T09:34:29.049Z,63808.00
2022-08-03T09:35:51.541Z,61696.00
2022-08-03T09:36:29.056Z,54176.00
2022-08-03T09:38:12.306Z,50464.00
2022-08-03T09:38:28.996Z,53408.00
2022-08-03T09:39:40.991Z,53920.00
2022-08-03T09:40:28.957Z,57440.00
2022-08-03T09:41:27.971Z,58400.00
2022-08-03T09:42:28.015Z,59168.00
2022-08-03T09:43:28.060Z,64384.00
2022-08-03T09:44:27.937Z,67520.00
2022-08-03T09:45:27.929Z,59104.00
2022-08-03T09:46:27.888Z,62464.00
2022-08-03T09:47:28.405Z,62912.00
2022-08-03T09:48:27.880Z,57024.00
2022-08-03T09:49:27.883Z,58048.00
2022-08-03T09:50:27.830Z,64768.00
2022-08-03T09:52:24.730Z,70112.00
2022-08-03T09:52:39.295Z,76448.00
2022-08-03T09:53:28.803Z,74208.00
2022-08-03T09:54:27.810Z,76992.00
2022-08-03T09:56:33.433Z,78656.00
2022-08-03T09:56:34.812Z,74432.00
2022-08-03T09:57:28.783Z,61888.00
2022-08-03T09:58:27.765Z,70176.00
2022-08-03T09:59:27.733Z,64800.00
2022-08-03T10:00:27.733Z,50496.00
2022-08-03T10:01:27.796Z,65824.00
2022-08-03T10:02:27.702Z,68000.00
2022-08-03T10:03:27.756Z,66112.00
2022-08-03T10:04:27.684Z,57824.00
2022-08-03T10:05:27.675Z,55328.00
2022-08-03T10:06:28.876Z,64000.00
2022-08-03T10:09:15.390Z,67840.00
2022-08-03T10:10:30.013Z,73056.00
2022-08-03T10:11:16.129Z,75648.00
2022-08-03T10:12:14.068Z,83072.00
2022-08-03T10:13:13.969Z,89792.00
2022-08-03T10:14:13.944Z,85760.00
2022-08-03T10:16:21.197Z,85632.00
2022-08-03T10:16:22.020Z,86592.00
2022-08-03T10:17:14.994Z,89856.00
2022-08-03T10:18:13.878Z,92000.00
2022-08-03T10:19:13.879Z,89280.00
2022-08-03T10:20:13.948Z,90688.00
2022-08-03T10:21:13.838Z,89056.00
2022-08-03T10:22:13.826Z,85344.00
2022-08-03T10:23:13.854Z,85984.00
2022-08-03T10:24:13.871Z,84384.00
2022-08-03T10:25:13.819Z,82048.00
2022-08-03T10:26:13.853Z,75776.00
2022-08-03T10:27:13.804Z,78368.00
2022-08-03T10:28:13.783Z,76640.00
2022-08-03T10:29:13.730Z,76544.00
2022-08-03T10:30:13.730Z,66432.00
2022-08-03T10:31:13.716Z,71872.00
2022-08-03T10:32:13.711Z,64704.00
2022-08-03T10:33:51.532Z,65760.00
2022-08-03T10:34:14.693Z,62656.00
2022-08-03T10:35:20.044Z,61408.00
2022-08-03T10:36:14.652Z,55328.00
2022-08-03T10:37:13.679Z,51936.00
2022-08-03T10:38:13.653Z,56160.00
2022-08-03T10:39:16.251Z,65440.00
2022-08-03T10:40:16.171Z,73216.00
2022-08-03T10:41:14.609Z,83936.00
2022-08-03T10:42:14.791Z,91584.00
2022-08-03T10:43:13.627Z,95936.00
2022-08-03T10:44:13.893Z,100224.00
2022-08-03T10:45:13.537Z,99296.00
2022-08-03T10:46:13.527Z,101696.00
2022-08-03T10:47:13.603Z,94240.00
2022-08-03T10:48:13.519Z,92160.00
2022-08-03T10:49:13.577Z,88736.00
2022-08-03T10:50:13.509Z,84480.00
2022-08-03T10:51:13.496Z,89216.00
2022-08-03T10:52:31.899Z,88928.00
2022-08-03T10:53:14.711Z,91200.00
2022-08-03T10:54:13.441Z,93024.00
2022-08-03T10:55:13.430Z,97728.00
2022-08-03T10:56:13.422Z,100192.00
2022-08-03T10:57:14.453Z,101600.00
2022-08-03T10:58:13.391Z,100832.00
2022-08-03T10:59:14.734Z,101376.00
2022-08-03T11:00:14.486Z,104896.00
2022-08-03T11:01:13.416Z,96960.00
2022-08-03T11:02:13.352Z,98944.00
2022-08-03T11:03:13.363Z,97216.00
2022-08-03T11:04:16.874Z,101376.00
2022-08-03T11:05:13.324Z,102112.00
2022-08-03T11:06:13.306Z,98304.00
2022-08-03T11:07:13.297Z,97472.00
2022-08-03T11:08:13.286Z,97280.00
2022-08-03T11:09:13.279Z,106240.00
2022-08-03T11:10:13.257Z,99712.00
2022-08-03T11:11:13.246Z,93536.00
2022-08-03T11:12:13.320Z,104448.00
2022-08-03T11:13:13.218Z,98944.00
2022-08-03T11:14:13.208Z,105472.00
2022-08-03T11:15:13.227Z,109056.00
2022-08-03T11:16:18.335Z,109824.00
2022-08-03T11:17:14.707Z,75328.00
2022-08-03T11:18:13.216Z,83872.00
2022-08-03T11:19:13.190Z,97152.00
2022-08-03T11:20:13.179Z,99008.00
2022-08-03T11:21:13.171Z,88928.00
2022-08-03T11:22:13.188Z,91456.00
2022-08-03T11:23:13.092Z,104928.00
2022-08-03T11:24:13.100Z,104224.00
2022-08-03T11:25:53.685Z,108224.00
2022-08-03T11:26:14.073Z,99136.00
2022-08-03T11:27:13.040Z,103936.00
2022-08-03T11:28:13.050Z,105952.00
2022-08-03T11:29:13.033Z,108160.00
2022-08-03T11:30:13.053Z,100832.00
2022-08-03T11:31:32.725Z,101824.00
2022-08-03T11:32:19.216Z,99936.00
2022-08-03T11:33:13.973Z,102624.00
2022-08-03T11:34:12.984Z,103360.00
2022-08-03T11:35:12.977Z,105152.00
2022-08-03T11:36:12.935Z,105984.00
2022-08-03T11:37:13.945Z,105728.00
2022-08-03T11:38:12.936Z,99392.00
2022-08-03T11:39:12.913Z,99648.00
2022-08-03T11:40:12.919Z,102944.00
2022-08-03T11:41:12.891Z,104448.00
2022-08-03T11:42:12.889Z,102368.00
2022-08-03T11:43:12.866Z,98400.00
2022-08-03T11:44:12.899Z,100192.00
2022-08-03T11:45:12.847Z,94240.00
2022-08-03T11:46:12.818Z,102944.00
2022-08-03T11:47:12.890Z,99808.00
2022-08-03T11:48:12.808Z,104672.00
2022-08-03T11:49:12.810Z,99616.00
2022-08-03T11:50:12.830Z,100672.00
2022-08-03T11:51:12.784Z,97312.00
2022-08-03T11:52:12.761Z,102400.00
2022-08-03T11:53:12.760Z,97440.00
2022-08-03T11:54:12.732Z,105504.00
2022-08-03T11:55:12.742Z,100576.00
2022-08-03T11:56:13.250Z,104512.00
2022-08-03T11:57:12.816Z,99680.00
2022-08-03T11:59:10.904Z,100960.00
2022-08-03T11:59:20.182Z,94528.00
2022-08-03T12:00:13.682Z,96352.00
2022-08-03T12:01:12.649Z,94112.00
2022-08-03T12:02:12.653Z,101056.00
2022-08-03T12:03:12.773Z,98624.00
2022-08-03T12:04:12.621Z,99328.00
2022-08-03T12:05:12.612Z,96160.00
2022-08-03T12:06:12.645Z,94880.00
2022-08-03T12:07:12.592Z,92448.00
2022-08-03T12:08:13.676Z,94240.00
2022-08-03T12:09:12.615Z,93504.00
2022-08-03T12:10:12.604Z,93408.00
2022-08-03T12:11:12.555Z,93632.00
2022-08-03T12:12:12.546Z,84864.00
2022-08-03T12:14:10.734Z,93280.00
2022-08-03T12:14:49.235Z,89344.00
2022-08-03T12:15:13.546Z,92832.00